sensor_id;sensor_type;location;lat;lon;timestamp;temperature;humidity
36716;DHT22;22699;51.034;3.730;2024-01-30T00:01:13;11.80;99.90
36716;DHT22;22699;51.034;3.730;2024-01-30T00:03:39;11.80;99.90
36716;DHT22;22699;51.034;3.730;2024-01-30T00:06:04;12.10;99.90
36716;DHT22;22699;51.034;3.730;2024-01-30T00:08:30;12.10;99.90
36716;DHT22;22699;51.034;3.730;2024-01-30T00:10:55;12.00;99.90
36716;DHT22;22699;51.034;3.730;2024-01-30T00:13:21;11.90;99.90
36716;DHT22;22699;51.034;3.730;2024-01-30T00:15:47;11.90;99.90
36716;DHT22;22699;51.034;3.730;2024-01-30T00:18:12;11.90;99.90
36716;DHT22;22699;51.034;3.730;2024-01-30T00:20:38;11.90;99.90
36716;DHT22;22699;51.034;3.730;2024-01-30T00:23:04;11.60;99.90
36716;DHT22;22699;51.034;3.730;2024-01-30T00:25:30;11.60;99.90
36716;DHT22;22699;51.034;3.730;2024-01-30T00:27:55;11.60;99.90
36716;DHT22;22699;51.034;3.730;2024-01-30T00:30:21;11.50;99.90
36716;DHT22;22699;51.034;3.730;2024-01-30T00:32:47;11.70;99.90
36716;DHT22;22699;51.034;3.730;2024-01-30T00:35:12;11.80;99.90
36716;DHT22;22699;51.034;3.730;2024-01-30T00:37:38;11.90;99.90
36716;DHT22;22699;51.034;3.730;2024-01-30T00:40:04;11.80;99.90
36716;DHT22;22699;51.034;3.730;2024-01-30T00:42:31;11.90;99.90
36716;DHT22;22699;51.034;3.730;2024-01-30T00:44:57;11.90;99.90
36716;DHT22;22699;51.034;3.730;2024-01-30T00:47:23;11.80;99.90
36716;DHT22;22699;51.034;3.730;2024-01-30T00:49:49;11.80;99.90
36716;DHT22;22699;51.034;3.730;2024-01-30T00:52:15;11.80;99.90
36716;DHT22;22699;51.034;3.730;2024-01-30T00:54:41;11.70;99.90
36716;DHT22;22699;51.034;3.730;2024-01-30T00:57:07;11.70;99.90
36716;DHT22;22699;51.034;3.730;2024-01-30T00:59:33;11.80;99.90
36716;DHT22;22699;51.034;3.730;2024-01-30T01:01:58;11.80;99.90
36716;DHT22;22699;51.034;3.730;2024-01-30T01:04:24;11.70;99.90
36716;DHT22;22699;51.034;3.730;2024-01-30T01:06:52;11.60;99.90
36716;DHT22;22699;51.034;3.730;2024-01-30T01:09:17;11.50;99.90
36716;DHT22;22699;51.034;3.730;2024-01-30T01:11:43;11.30;99.90
36716;DHT22;22699;51.034;3.730;2024-01-30T01:14:08;11.50;99.90
36716;DHT22;22699;51.034;3.730;2024-01-30T01:16:34;11.40;99.90
36716;DHT22;22699;51.034;3.730;2024-01-30T01:19:00;11.50;99.90
36716;DHT22;22699;51.034;3.730;2024-01-30T01:21:25;11.60;99.90
36716;DHT22;22699;51.034;3.730;2024-01-30T01:23:51;11.60;99.90
36716;DHT22;22699;51.034;3.730;2024-01-30T01:26:16;11.80;99.90
36716;DHT22;22699;51.034;3.730;2024-01-30T01:28:42;11.90;99.90
36716;DHT22;22699;51.034;3.730;2024-01-30T01:31:08;11.70;99.90
36716;DHT22;22699;51.034;3.730;2024-01-30T01:33:34;11.80;99.90
36716;DHT22;22699;51.034;3.730;2024-01-30T01:36:00;11.60;99.90
36716;DHT22;22699;51.034;3.730;2024-01-30T01:38:28;11.70;99.90
36716;DHT22;22699;51.034;3.730;2024-01-30T01:40:54;11.60;99.90
36716;DHT22;22699;51.034;3.730;2024-01-30T01:43:19;11.50;99.90
36716;DHT22;22699;51.034;3.730;2024-01-30T01:45:45;11.40;99.90
36716;DHT22;22699;51.034;3.730;2024-01-30T01:48:11;11.50;99.90
36716;DHT22;22699;51.034;3.730;2024-01-30T01:50:38;11.50;99.90
36716;DHT22;22699;51.034;3.730;2024-01-30T01:53:04;11.50;99.90
36716;DHT22;22699;51.034;3.730;2024-01-30T01:55:31;11.80;99.90
36716;DHT22;22699;51.034;3.730;2024-01-30T01:57:57;11.70;99.90
36716;DHT22;22699;51.034;3.730;2024-01-30T02:00:23;11.80;99.90
36716;DHT22;22699;51.034;3.730;2024-01-30T02:02:50;11.80;99.90
36716;DHT22;22699;51.034;3.730;2024-01-30T02:05:17;11.70;99.90
36716;DHT22;22699;51.034;3.730;2024-01-30T02:07:43;11.60;99.90
36716;DHT22;22699;51.034;3.730;2024-01-30T02:10:09;11.60;99.90
36716;DHT22;22699;51.034;3.730;2024-01-30T02:12:38;11.50;99.90
36716;DHT22;22699;51.034;3.730;2024-01-30T02:15:04;11.60;99.90
36716;DHT22;22699;51.034;3.730;2024-01-30T02:17:30;11.60;99.90
36716;DHT22;22699;51.034;3.730;2024-01-30T02:19:57;11.70;99.90
36716;DHT22;22699;51.034;3.730;2024-01-30T02:22:22;11.90;99.90
36716;DHT22;22699;51.034;3.730;2024-01-30T02:24:49;11.90;99.90
36716;DHT22;22699;51.034;3.730;2024-01-30T02:27:14;11.70;99.90
36716;DHT22;22699;51.034;3.730;2024-01-30T02:29:40;11.90;99.90
36716;DHT22;22699;51.034;3.730;2024-01-30T02:32:06;12.00;99.90
36716;DHT22;22699;51.034;3.730;2024-01-30T02:34:33;11.90;99.90
36716;DHT22;22699;51.034;3.730;2024-01-30T02:36:58;11.80;99.90
36716;DHT22;22699;51.034;3.730;2024-01-30T02:39:24;11.80;99.90
36716;DHT22;22699;51.034;3.730;2024-01-30T02:41:51;11.80;99.90
36716;DHT22;22699;51.034;3.730;2024-01-30T02:44:16;11.90;99.90
36716;DHT22;22699;51.034;3.730;2024-01-30T02:46:42;11.90;99.90
36716;DHT22;22699;51.034;3.730;2024-01-30T02:49:08;11.90;99.90
36716;DHT22;22699;51.034;3.730;2024-01-30T02:51:33;11.90;99.90
36716;DHT22;22699;51.034;3.730;2024-01-30T02:53:59;12.00;99.90
36716;DHT22;22699;51.034;3.730;2024-01-30T02:56:24;12.00;99.90
36716;DHT22;22699;51.034;3.730;2024-01-30T02:58:50;12.00;99.90
36716;DHT22;22699;51.034;3.730;2024-01-30T03:01:16;11.90;99.90
36716;DHT22;22699;51.034;3.730;2024-01-30T03:03:41;11.80;99.90
36716;DHT22;22699;51.034;3.730;2024-01-30T03:06:08;11.80;99.90
36716;DHT22;22699;51.034;3.730;2024-01-30T03:08:35;11.60;99.90
36716;DHT22;22699;51.034;3.730;2024-01-30T03:11:00;11.70;99.90
36716;DHT22;22699;51.034;3.730;2024-01-30T03:13:27;11.70;99.90
36716;DHT22;22699;51.034;3.730;2024-01-30T03:15:52;11.70;99.90
36716;DHT22;22699;51.034;3.730;2024-01-30T03:18:18;11.70;99.90
36716;DHT22;22699;51.034;3.730;2024-01-30T03:20:43;11.70;99.90
36716;DHT22;22699;51.034;3.730;2024-01-30T03:23:09;11.90;99.90
36716;DHT22;22699;51.034;3.730;2024-01-30T03:25:34;11.90;99.90
36716;DHT22;22699;51.034;3.730;2024-01-30T03:28:00;11.70;99.90
36716;DHT22;22699;51.034;3.730;2024-01-30T03:30:26;11.80;99.90
36716;DHT22;22699;51.034;3.730;2024-01-30T03:32:51;11.80;99.90
36716;DHT22;22699;51.034;3.730;2024-01-30T03:35:19;11.80;99.90
36716;DHT22;22699;51.034;3.730;2024-01-30T03:37:44;11.70;99.90
36716;DHT22;22699;51.034;3.730;2024-01-30T03:40:10;11.70;99.90
36716;DHT22;22699;51.034;3.730;2024-01-30T03:42:36;11.70;99.90
36716;DHT22;22699;51.034;3.730;2024-01-30T03:45:02;11.80;99.90
36716;DHT22;22699;51.034;3.730;2024-01-30T03:47:28;11.70;99.90
36716;DHT22;22699;51.034;3.730;2024-01-30T03:49:53;11.70;99.90
36716;DHT22;22699;51.034;3.730;2024-01-30T03:52:19;11.70;99.90
36716;DHT22;22699;51.034;3.730;2024-01-30T03:54:44;11.80;99.90
36716;DHT22;22699;51.034;3.730;2024-01-30T03:57:10;11.90;99.90
36716;DHT22;22699;51.034;3.730;2024-01-30T03:59:36;11.60;99.90
36716;DHT22;22699;51.034;3.730;2024-01-30T04:02:02;11.70;99.90
36716;DHT22;22699;51.034;3.730;2024-01-30T04:04:28;11.60;99.90
36716;DHT22;22699;51.034;3.730;2024-01-30T04:06:53;11.60;99.90
36716;DHT22;22699;51.034;3.730;2024-01-30T04:09:19;11.60;99.90
36716;DHT22;22699;51.034;3.730;2024-01-30T04:11:44;11.60;99.90
36716;DHT22;22699;51.034;3.730;2024-01-30T04:14:10;11.70;99.90
36716;DHT22;22699;51.034;3.730;2024-01-30T04:16:36;11.80;99.90
36716;DHT22;22699;51.034;3.730;2024-01-30T04:19:02;11.70;99.90
36716;DHT22;22699;51.034;3.730;2024-01-30T04:21:27;11.60;99.90
36716;DHT22;22699;51.034;3.730;2024-01-30T04:23:53;11.50;99.90
36716;DHT22;22699;51.034;3.730;2024-01-30T04:26:19;11.30;99.90
36716;DHT22;22699;51.034;3.730;2024-01-30T04:28:45;11.40;99.90
36716;DHT22;22699;51.034;3.730;2024-01-30T04:31:11;11.50;99.90
36716;DHT22;22699;51.034;3.730;2024-01-30T04:33:36;11.60;99.90
36716;DHT22;22699;51.034;3.730;2024-01-30T04:36:02;11.70;99.90
36716;DHT22;22699;51.034;3.730;2024-01-30T04:38:29;11.80;99.90
36716;DHT22;22699;51.034;3.730;2024-01-30T04:40:54;11.70;99.90
36716;DHT22;22699;51.034;3.730;2024-01-30T04:43:20;11.80;99.90
36716;DHT22;22699;51.034;3.730;2024-01-30T04:45:47;11.90;99.90
36716;DHT22;22699;51.034;3.730;2024-01-30T04:48:12;11.70;99.90
36716;DHT22;22699;51.034;3.730;2024-01-30T04:50:38;11.70;99.90
36716;DHT22;22699;51.034;3.730;2024-01-30T04:53:03;11.80;99.90
36716;DHT22;22699;51.034;3.730;2024-01-30T04:55:29;11.80;99.90
36716;DHT22;22699;51.034;3.730;2024-01-30T04:57:54;11.80;99.90
36716;DHT22;22699;51.034;3.730;2024-01-30T05:00:20;11.80;99.90
36716;DHT22;22699;51.034;3.730;2024-01-30T05:02:46;11.60;99.90
36716;DHT22;22699;51.034;3.730;2024-01-30T05:05:11;11.40;99.90
36716;DHT22;22699;51.034;3.730;2024-01-30T05:07:37;11.30;99.90
36716;DHT22;22699;51.034;3.730;2024-01-30T05:10:03;11.30;99.90
36716;DHT22;22699;51.034;3.730;2024-01-30T05:12:28;11.40;99.90
36716;DHT22;22699;51.034;3.730;2024-01-30T05:14:54;11.50;99.90
36716;DHT22;22699;51.034;3.730;2024-01-30T05:17:20;11.50;99.90
36716;DHT22;22699;51.034;3.730;2024-01-30T05:19:45;11.40;99.90
36716;DHT22;22699;51.034;3.730;2024-01-30T05:22:11;11.40;99.90
36716;DHT22;22699;51.034;3.730;2024-01-30T05:24:43;11.50;99.90
36716;DHT22;22699;51.034;3.730;2024-01-30T05:27:09;11.70;99.90
36716;DHT22;22699;51.034;3.730;2024-01-30T05:29:34;11.70;99.90
36716;DHT22;22699;51.034;3.730;2024-01-30T05:32:00;11.70;99.90
36716;DHT22;22699;51.034;3.730;2024-01-30T05:34:25;11.80;99.90
36716;DHT22;22699;51.034;3.730;2024-01-30T05:36:51;11.70;99.90
36716;DHT22;22699;51.034;3.730;2024-01-30T05:39:17;11.70;99.90
36716;DHT22;22699;51.034;3.730;2024-01-30T05:41:42;11.80;99.90
36716;DHT22;22699;51.034;3.730;2024-01-30T05:44:08;11.90;99.90
36716;DHT22;22699;51.034;3.730;2024-01-30T05:46:35;11.80;99.90
36716;DHT22;22699;51.034;3.730;2024-01-30T05:49:01;11.80;99.90
36716;DHT22;22699;51.034;3.730;2024-01-30T05:51:26;11.80;99.90
36716;DHT22;22699;51.034;3.730;2024-01-30T05:53:53;11.90;99.90
36716;DHT22;22699;51.034;3.730;2024-01-30T05:56:19;11.60;99.90
36716;DHT22;22699;51.034;3.730;2024-01-30T05:58:45;11.80;99.90
36716;DHT22;22699;51.034;3.730;2024-01-30T06:01:10;11.90;99.90
36716;DHT22;22699;51.034;3.730;2024-01-30T06:03:36;11.90;99.90
36716;DHT22;22699;51.034;3.730;2024-01-30T06:06:02;11.70;99.90
36716;DHT22;22699;51.034;3.730;2024-01-30T06:08:27;11.70;99.90
36716;DHT22;22699;51.034;3.730;2024-01-30T06:10:53;11.60;99.90
36716;DHT22;22699;51.034;3.730;2024-01-30T06:13:20;11.50;99.90
36716;DHT22;22699;51.034;3.730;2024-01-30T06:15:45;11.50;99.90
36716;DHT22;22699;51.034;3.730;2024-01-30T06:18:11;11.60;99.90
36716;DHT22;22699;51.034;3.730;2024-01-30T06:20:37;11.70;99.90
36716;DHT22;22699;51.034;3.730;2024-01-30T06:23:03;11.70;99.90
36716;DHT22;22699;51.034;3.730;2024-01-30T06:25:28;11.60;99.90
36716;DHT22;22699;51.034;3.730;2024-01-30T06:27:54;11.60;99.90
36716;DHT22;22699;51.034;3.730;2024-01-30T06:30:20;11.60;99.90
36716;DHT22;22699;51.034;3.730;2024-01-30T06:32:45;11.70;99.90
36716;DHT22;22699;51.034;3.730;2024-01-30T06:35:11;11.80;99.90
36716;DHT22;22699;51.034;3.730;2024-01-30T06:37:37;11.80;99.90
36716;DHT22;22699;51.034;3.730;2024-01-30T06:40:02;11.90;99.90
36716;DHT22;22699;51.034;3.730;2024-01-30T06:42:30;11.80;99.90
36716;DHT22;22699;51.034;3.730;2024-01-30T06:44:56;11.70;99.90
36716;DHT22;22699;51.034;3.730;2024-01-30T06:47:21;11.80;99.90
36716;DHT22;22699;51.034;3.730;2024-01-30T06:49:47;11.80;99.90
36716;DHT22;22699;51.034;3.730;2024-01-30T06:52:12;11.90;99.90
36716;DHT22;22699;51.034;3.730;2024-01-30T06:54:38;11.80;99.90
36716;DHT22;22699;51.034;3.730;2024-01-30T06:57:05;11.90;99.90
36716;DHT22;22699;51.034;3.730;2024-01-30T06:59:34;11.90;99.90
36716;DHT22;22699;51.034;3.730;2024-01-30T07:02:00;12.00;99.90
36716;DHT22;22699;51.034;3.730;2024-01-30T07:04:25;12.10;99.90
36716;DHT22;22699;51.034;3.730;2024-01-30T07:06:51;11.90;99.90
36716;DHT22;22699;51.034;3.730;2024-01-30T07:09:18;12.00;99.90
36716;DHT22;22699;51.034;3.730;2024-01-30T07:11:44;12.00;99.90
36716;DHT22;22699;51.034;3.730;2024-01-30T07:14:10;12.10;99.90
36716;DHT22;22699;51.034;3.730;2024-01-30T07:16:36;12.20;99.90
36716;DHT22;22699;51.034;3.730;2024-01-30T07:19:01;12.10;99.90
36716;DHT22;22699;51.034;3.730;2024-01-30T07:21:27;12.10;99.90
36716;DHT22;22699;51.034;3.730;2024-01-30T07:23:57;12.10;99.90
36716;DHT22;22699;51.034;3.730;2024-01-30T07:26:22;12.10;99.90
36716;DHT22;22699;51.034;3.730;2024-01-30T07:28:48;12.10;99.90
36716;DHT22;22699;51.034;3.730;2024-01-30T07:31:15;12.00;99.90
36716;DHT22;22699;51.034;3.730;2024-01-30T07:33:41;12.00;99.90
36716;DHT22;22699;51.034;3.730;2024-01-30T07:36:06;12.00;99.90
36716;DHT22;22699;51.034;3.730;2024-01-30T07:38:32;12.00;99.90
36716;DHT22;22699;51.034;3.730;2024-01-30T07:40:58;11.90;99.90
36716;DHT22;22699;51.034;3.730;2024-01-30T07:43:23;11.90;99.90
36716;DHT22;22699;51.034;3.730;2024-01-30T07:45:49;11.80;99.90
36716;DHT22;22699;51.034;3.730;2024-01-30T07:48:15;12.00;99.90
36716;DHT22;22699;51.034;3.730;2024-01-30T07:50:40;12.00;99.90
36716;DHT22;22699;51.034;3.730;2024-01-30T07:53:06;12.20;99.90
36716;DHT22;22699;51.034;3.730;2024-01-30T07:55:32;12.20;99.90
36716;DHT22;22699;51.034;3.730;2024-01-30T07:57:58;12.20;99.90
36716;DHT22;22699;51.034;3.730;2024-01-30T08:00:27;12.10;99.90
36716;DHT22;22699;51.034;3.730;2024-01-30T08:02:54;11.90;99.90
36716;DHT22;22699;51.034;3.730;2024-01-30T08:05:21;12.00;99.90
36716;DHT22;22699;51.034;3.730;2024-01-30T08:07:48;12.00;99.90
36716;DHT22;22699;51.034;3.730;2024-01-30T08:10:14;12.10;99.90
36716;DHT22;22699;51.034;3.730;2024-01-30T08:12:40;11.90;99.90
36716;DHT22;22699;51.034;3.730;2024-01-30T08:15:06;11.80;99.90
36716;DHT22;22699;51.034;3.730;2024-01-30T08:17:32;11.80;99.90
36716;DHT22;22699;51.034;3.730;2024-01-30T08:19:58;11.80;99.90
36716;DHT22;22699;51.034;3.730;2024-01-30T08:22:24;11.90;99.90
36716;DHT22;22699;51.034;3.730;2024-01-30T08:24:50;11.90;99.90
36716;DHT22;22699;51.034;3.730;2024-01-30T08:27:15;11.90;99.90
36716;DHT22;22699;51.034;3.730;2024-01-30T08:29:41;11.80;99.90
36716;DHT22;22699;51.034;3.730;2024-01-30T08:32:07;11.80;99.90
36716;DHT22;22699;51.034;3.730;2024-01-30T08:34:32;11.60;99.90
36716;DHT22;22699;51.034;3.730;2024-01-30T08:36:58;11.60;99.90
36716;DHT22;22699;51.034;3.730;2024-01-30T08:39:24;11.70;99.90
36716;DHT22;22699;51.034;3.730;2024-01-30T08:41:50;11.60;99.90
36716;DHT22;22699;51.034;3.730;2024-01-30T08:44:15;11.60;99.90
36716;DHT22;22699;51.034;3.730;2024-01-30T08:46:41;11.80;99.90
36716;DHT22;22699;51.034;3.730;2024-01-30T08:49:07;11.90;99.90
36716;DHT22;22699;51.034;3.730;2024-01-30T08:51:33;11.80;99.90
36716;DHT22;22699;51.034;3.730;2024-01-30T08:53:59;11.90;99.90
36716;DHT22;22699;51.034;3.730;2024-01-30T08:56:25;11.70;99.90
36716;DHT22;22699;51.034;3.730;2024-01-30T08:58:51;11.80;99.90
36716;DHT22;22699;51.034;3.730;2024-01-30T09:01:16;11.70;99.90
36716;DHT22;22699;51.034;3.730;2024-01-30T09:03:42;11.80;99.90
36716;DHT22;22699;51.034;3.730;2024-01-30T09:06:11;11.90;99.90
36716;DHT22;22699;51.034;3.730;2024-01-30T09:08:37;11.80;99.90
36716;DHT22;22699;51.034;3.730;2024-01-30T09:11:14;11.80;99.90
36716;DHT22;22699;51.034;3.730;2024-01-30T09:13:41;11.80;99.90
36716;DHT22;22699;51.034;3.730;2024-01-30T09:16:06;11.90;99.90
36716;DHT22;22699;51.034;3.730;2024-01-30T09:18:32;11.90;99.90
36716;DHT22;22699;51.034;3.730;2024-01-30T09:20:58;12.00;99.90
36716;DHT22;22699;51.034;3.730;2024-01-30T09:23:24;11.90;99.90
36716;DHT22;22699;51.034;3.730;2024-01-30T09:25:50;11.90;99.90
36716;DHT22;22699;51.034;3.730;2024-01-30T09:28:17;12.00;99.90
36716;DHT22;22699;51.034;3.730;2024-01-30T09:30:43;11.70;99.90
36716;DHT22;22699;51.034;3.730;2024-01-30T09:33:09;11.80;99.90
36716;DHT22;22699;51.034;3.730;2024-01-30T09:35:35;11.90;99.90
36716;DHT22;22699;51.034;3.730;2024-01-30T09:38:02;11.90;99.90
36716;DHT22;22699;51.034;3.730;2024-01-30T09:40:27;11.70;99.90
36716;DHT22;22699;51.034;3.730;2024-01-30T09:42:54;11.90;99.90
36716;DHT22;22699;51.034;3.730;2024-01-30T09:45:24;11.80;99.90
36716;DHT22;22699;51.034;3.730;2024-01-30T09:47:50;11.80;99.90
36716;DHT22;22699;51.034;3.730;2024-01-30T09:50:16;11.60;99.90
36716;DHT22;22699;51.034;3.730;2024-01-30T09:52:43;11.40;99.90
36716;DHT22;22699;51.034;3.730;2024-01-30T09:55:09;11.40;99.90
36716;DHT22;22699;51.034;3.730;2024-01-30T09:57:35;11.40;99.90
36716;DHT22;22699;51.034;3.730;2024-01-30T10:00:02;11.40;99.90
36716;DHT22;22699;51.034;3.730;2024-01-30T10:02:31;11.40;99.90
36716;DHT22;22699;51.034;3.730;2024-01-30T10:04:57;11.50;99.90
36716;DHT22;22699;51.034;3.730;2024-01-30T10:07:23;11.30;99.90
36716;DHT22;22699;51.034;3.730;2024-01-30T10:09:49;11.20;99.90
36716;DHT22;22699;51.034;3.730;2024-01-30T10:12:15;11.10;99.90
36716;DHT22;22699;51.034;3.730;2024-01-30T10:14:42;11.10;99.90
36716;DHT22;22699;51.034;3.730;2024-01-30T10:17:08;11.10;99.90
36716;DHT22;22699;51.034;3.730;2024-01-30T10:19:35;11.20;99.90
36716;DHT22;22699;51.034;3.730;2024-01-30T10:22:01;11.30;99.90
36716;DHT22;22699;51.034;3.730;2024-01-30T10:24:27;11.40;99.90
36716;DHT22;22699;51.034;3.730;2024-01-30T10:26:55;11.30;99.90
36716;DHT22;22699;51.034;3.730;2024-01-30T10:29:20;11.30;99.90
36716;DHT22;22699;51.034;3.730;2024-01-30T10:31:46;11.30;99.90
36716;DHT22;22699;51.034;3.730;2024-01-30T10:34:13;11.30;99.90
36716;DHT22;22699;51.034;3.730;2024-01-30T10:36:43;11.40;99.90
36716;DHT22;22699;51.034;3.730;2024-01-30T10:39:13;11.40;99.90
36716;DHT22;22699;51.034;3.730;2024-01-30T10:41:43;11.50;99.90
36716;DHT22;22699;51.034;3.730;2024-01-30T10:44:10;11.40;99.90
36716;DHT22;22699;51.034;3.730;2024-01-30T10:46:38;11.40;99.90
36716;DHT22;22699;51.034;3.730;2024-01-30T10:49:04;11.50;99.90
36716;DHT22;22699;51.034;3.730;2024-01-30T10:51:32;11.30;99.90
36716;DHT22;22699;51.034;3.730;2024-01-30T10:53:57;11.40;99.90
36716;DHT22;22699;51.034;3.730;2024-01-30T10:56:24;11.50;99.90
36716;DHT22;22699;51.034;3.730;2024-01-30T10:58:51;11.60;99.90
36716;DHT22;22699;51.034;3.730;2024-01-30T11:01:22;11.60;99.90
36716;DHT22;22699;51.034;3.730;2024-01-30T11:03:50;11.60;99.90
36716;DHT22;22699;51.034;3.730;2024-01-30T11:06:16;11.50;99.90
36716;DHT22;22699;51.034;3.730;2024-01-30T11:08:44;11.50;99.90
36716;DHT22;22699;51.034;3.730;2024-01-30T11:11:10;11.60;99.90
36716;DHT22;22699;51.034;3.730;2024-01-30T11:13:36;11.60;99.90
36716;DHT22;22699;51.034;3.730;2024-01-30T11:16:03;11.70;99.90
36716;DHT22;22699;51.034;3.730;2024-01-30T11:18:30;11.60;99.90
36716;DHT22;22699;51.034;3.730;2024-01-30T11:21:01;11.60;99.90
36716;DHT22;22699;51.034;3.730;2024-01-30T11:23:30;11.50;99.90
36716;DHT22;22699;51.034;3.730;2024-01-30T11:25:57;11.50;99.90
36716;DHT22;22699;51.034;3.730;2024-01-30T11:28:23;11.50;99.90
36716;DHT22;22699;51.034;3.730;2024-01-30T11:30:49;11.70;99.90
36716;DHT22;22699;51.034;3.730;2024-01-30T11:33:28;11.60;99.90
36716;DHT22;22699;51.034;3.730;2024-01-30T11:35:57;11.70;99.90
36716;DHT22;22699;51.034;3.730;2024-01-30T11:38:24;11.70;99.90
36716;DHT22;22699;51.034;3.730;2024-01-30T11:40:51;11.60;99.90
36716;DHT22;22699;51.034;3.730;2024-01-30T11:43:18;11.40;99.90
36716;DHT22;22699;51.034;3.730;2024-01-30T11:45:44;11.50;99.90
36716;DHT22;22699;51.034;3.730;2024-01-30T11:48:12;11.40;99.90
36716;DHT22;22699;51.034;3.730;2024-01-30T11:50:39;11.40;99.90
36716;DHT22;22699;51.034;3.730;2024-01-30T11:53:05;11.30;99.90
36716;DHT22;22699;51.034;3.730;2024-01-30T11:55:31;11.30;99.90
36716;DHT22;22699;51.034;3.730;2024-01-30T11:57:58;11.20;99.90
36716;DHT22;22699;51.034;3.730;2024-01-30T12:00:24;11.20;99.90
36716;DHT22;22699;51.034;3.730;2024-01-30T12:02:51;11.20;99.90
36716;DHT22;22699;51.034;3.730;2024-01-30T12:05:21;11.20;99.90
36716;DHT22;22699;51.034;3.730;2024-01-30T12:07:46;11.10;99.90
36716;DHT22;22699;51.034;3.730;2024-01-30T12:10:15;10.90;99.90
36716;DHT22;22699;51.034;3.730;2024-01-30T12:12:46;10.80;99.90
36716;DHT22;22699;51.034;3.730;2024-01-30T12:15:13;11.00;99.90
36716;DHT22;22699;51.034;3.730;2024-01-30T12:17:39;11.20;99.90
36716;DHT22;22699;51.034;3.730;2024-01-30T12:20:08;11.20;99.90
36716;DHT22;22699;51.034;3.730;2024-01-30T12:22:39;11.10;99.90
36716;DHT22;22699;51.034;3.730;2024-01-30T12:25:11;11.20;99.90
36716;DHT22;22699;51.034;3.730;2024-01-30T12:27:38;11.10;99.90
36716;DHT22;22699;51.034;3.730;2024-01-30T12:30:08;11.20;99.90
36716;DHT22;22699;51.034;3.730;2024-01-30T12:32:35;11.10;99.90
36716;DHT22;22699;51.034;3.730;2024-01-30T12:35:01;11.20;99.90
36716;DHT22;22699;51.034;3.730;2024-01-30T12:37:27;10.90;99.90
36716;DHT22;22699;51.034;3.730;2024-01-30T12:39:55;10.80;99.90
36716;DHT22;22699;51.034;3.730;2024-01-30T12:42:20;10.80;99.90
36716;DHT22;22699;51.034;3.730;2024-01-30T12:44:48;11.10;99.90
36716;DHT22;22699;51.034;3.730;2024-01-30T12:47:14;11.20;99.90
36716;DHT22;22699;51.034;3.730;2024-01-30T12:49:44;11.20;99.90
36716;DHT22;22699;51.034;3.730;2024-01-30T12:52:16;11.10;99.90
36716;DHT22;22699;51.034;3.730;2024-01-30T12:54:41;11.00;99.90
36716;DHT22;22699;51.034;3.730;2024-01-30T12:57:07;10.80;99.90
36716;DHT22;22699;51.034;3.730;2024-01-30T12:59:33;10.70;99.90
36716;DHT22;22699;51.034;3.730;2024-01-30T13:02:00;10.70;99.90
36716;DHT22;22699;51.034;3.730;2024-01-30T13:04:27;10.80;99.90
36716;DHT22;22699;51.034;3.730;2024-01-30T13:06:53;10.90;99.90
36716;DHT22;22699;51.034;3.730;2024-01-30T13:09:18;11.00;99.90
36716;DHT22;22699;51.034;3.730;2024-01-30T13:11:45;10.90;99.90
36716;DHT22;22699;51.034;3.730;2024-01-30T13:14:10;10.80;99.90
36716;DHT22;22699;51.034;3.730;2024-01-30T13:16:36;10.50;99.90
36716;DHT22;22699;51.034;3.730;2024-01-30T13:19:02;10.50;99.90
36716;DHT22;22699;51.034;3.730;2024-01-30T13:21:28;10.60;99.90
36716;DHT22;22699;51.034;3.730;2024-01-30T13:23:53;10.70;99.90
36716;DHT22;22699;51.034;3.730;2024-01-30T13:26:20;11.00;99.90
36716;DHT22;22699;51.034;3.730;2024-01-30T13:28:46;11.00;99.90
36716;DHT22;22699;51.034;3.730;2024-01-30T13:31:13;11.10;99.90
36716;DHT22;22699;51.034;3.730;2024-01-30T13:33:39;11.30;99.90
36716;DHT22;22699;51.034;3.730;2024-01-30T13:36:04;11.20;99.90
36716;DHT22;22699;51.034;3.730;2024-01-30T13:38:30;11.20;99.90
36716;DHT22;22699;51.034;3.730;2024-01-30T13:40:56;11.40;99.90
36716;DHT22;22699;51.034;3.730;2024-01-30T13:43:21;11.50;99.90
36716;DHT22;22699;51.034;3.730;2024-01-30T13:45:47;11.70;99.90
36716;DHT22;22699;51.034;3.730;2024-01-30T13:48:13;11.70;99.90
36716;DHT22;22699;51.034;3.730;2024-01-30T13:50:38;11.60;99.90
36716;DHT22;22699;51.034;3.730;2024-01-30T13:53:04;11.50;99.90
36716;DHT22;22699;51.034;3.730;2024-01-30T13:55:30;11.50;99.90
36716;DHT22;22699;51.034;3.730;2024-01-30T13:57:55;11.40;99.90
36716;DHT22;22699;51.034;3.730;2024-01-30T14:00:22;11.40;99.90
36716;DHT22;22699;51.034;3.730;2024-01-30T14:02:48;11.20;99.90
36716;DHT22;22699;51.034;3.730;2024-01-30T14:05:14;11.20;99.90
36716;DHT22;22699;51.034;3.730;2024-01-30T14:07:40;11.30;99.90
36716;DHT22;22699;51.034;3.730;2024-01-30T14:10:09;11.50;99.90
36716;DHT22;22699;51.034;3.730;2024-01-30T14:12:36;11.50;99.90
36716;DHT22;22699;51.034;3.730;2024-01-30T14:15:01;11.40;99.90
36716;DHT22;22699;51.034;3.730;2024-01-30T14:17:27;11.10;99.90
36716;DHT22;22699;51.034;3.730;2024-01-30T14:19:53;11.10;99.90
36716;DHT22;22699;51.034;3.730;2024-01-30T14:22:18;11.40;99.90
36716;DHT22;22699;51.034;3.730;2024-01-30T14:24:44;10.90;99.90
36716;DHT22;22699;51.034;3.730;2024-01-30T14:27:10;10.80;99.90
36716;DHT22;22699;51.034;3.730;2024-01-30T14:29:35;10.90;99.90
36716;DHT22;22699;51.034;3.730;2024-01-30T14:32:02;11.20;99.90
36716;DHT22;22699;51.034;3.730;2024-01-30T14:34:29;11.30;99.90
36716;DHT22;22699;51.034;3.730;2024-01-30T14:36:55;11.00;99.90
36716;DHT22;22699;51.034;3.730;2024-01-30T14:39:20;11.00;99.90
36716;DHT22;22699;51.034;3.730;2024-01-30T14:41:46;11.00;99.90
36716;DHT22;22699;51.034;3.730;2024-01-30T14:44:12;11.00;99.90
36716;DHT22;22699;51.034;3.730;2024-01-30T14:46:37;10.90;99.90
36716;DHT22;22699;51.034;3.730;2024-01-30T14:49:03;10.70;99.90
36716;DHT22;22699;51.034;3.730;2024-01-30T14:51:33;10.80;99.90
36716;DHT22;22699;51.034;3.730;2024-01-30T14:53:59;11.00;99.90
36716;DHT22;22699;51.034;3.730;2024-01-30T14:56:25;11.00;99.90
36716;DHT22;22699;51.034;3.730;2024-01-30T14:58:51;10.90;99.90
36716;DHT22;22699;51.034;3.730;2024-01-30T15:01:17;10.80;99.90
36716;DHT22;22699;51.034;3.730;2024-01-30T15:03:43;10.70;99.90
36716;DHT22;22699;51.034;3.730;2024-01-30T15:06:09;10.90;99.90
36716;DHT22;22699;51.034;3.730;2024-01-30T15:08:35;11.10;99.90
36716;DHT22;22699;51.034;3.730;2024-01-30T15:11:00;11.00;99.90
36716;DHT22;22699;51.034;3.730;2024-01-30T15:13:29;11.00;99.90
36716;DHT22;22699;51.034;3.730;2024-01-30T15:15:55;10.90;99.90
36716;DHT22;22699;51.034;3.730;2024-01-30T15:18:21;10.90;99.90
36716;DHT22;22699;51.034;3.730;2024-01-30T15:20:46;10.90;99.90
36716;DHT22;22699;51.034;3.730;2024-01-30T15:23:12;10.80;99.90